Time;durP1;ratioP1;P1;durP2;ratioP2;P2;SDS_P1;SDS_P2;PMS_P1;PMS_P2;Temp;Humidity;BMP_temperature;BMP_pressure;BME280_temperature;BME280_humidity;BME280_pressure;Samples;Min_cycle;Max_cycle;Signal;HPM_P1;HPM_P2
2022/08/22 00:02:33;;;;;;;3.70;3.30;;;;;;;16.01;100.00;98434.48;104429;1280;61307;-69
2022/08/22 00:05:14;;;;;;;7.50;3.20;;;;;;;16.02;100.00;98433.50;104448;1280;62349;-69
2022/08/22 00:07:52;;;;;;;2.70;2.50;;;;;;;16.03;100.00;98429.10;104385;1277;75421;-69
2022/08/22 00:10:34;;;;;;;2.90;2.70;;;;;;;16.05;100.00;98432.56;104365;1280;69336;-70
2022/08/22 00:13:08;;;;;;;3.20;2.90;;;;;;;16.07;100.00;98433.02;104045;1280;73091;-70
2022/08/22 00:16:11;;;;;;;3.40;3.10;;;;;;;16.09;100.00;98436.77;104369;1279;61413;-69
2022/08/22 00:18:43;;;;;;;3.40;3.10;;;;;;;16.12;100.00;98432.39;103897;1286;61427;-69
2022/08/22 00:21:17;;;;;;;3.90;3.50;;;;;;;16.11;100.00;98434.03;104240;1281;74430;-69
2022/08/22 00:23:43;;;;;;;3.30;2.70;;;;;;;16.12;100.00;98425.73;104388;1281;70589;-70
2022/08/22 00:26:51;;;;;;;3.10;2.90;;;;;;;16.11;100.00;98424.70;104334;1281;61474;-70
2022/08/22 00:29:25;;;;;;;3.30;3.00;;;;;;;16.12;100.00;98424.64;104386;1281;61436;-69
2022/08/22 00:32:27;;;;;;;3.80;2.50;;;;;;;16.13;100.00;98428.70;104383;1281;61374;-69
2022/08/22 00:35:12;;;;;;;2.90;2.70;;;;;;;16.14;100.00;98430.85;103484;1286;75833;-71
2022/08/22 00:37:44;;;;;;;3.20;2.90;;;;;;;16.16;100.00;98434.13;103933;1285;68689;-69
2022/08/22 00:40:24;;;;;;;2.90;2.70;;;;;;;16.17;100.00;98434.00;103756;1285;74264;-68
2022/08/22 00:43:28;;;;;;;2.80;2.60;;;;;;;16.18;100.00;98433.67;103793;1285;61411;-69
2022/08/22 00:46:16;;;;;;;3.00;2.70;;;;;;;16.21;100.00;98433.80;103814;1285;61977;-70
2022/08/22 00:48:52;;;;;;;3.10;2.90;;;;;;;16.21;100.00;98432.67;103501;1285;76457;-68
2022/08/22 00:51:52;;;;;;;3.20;2.90;;;;;;;16.22;100.00;98432.98;103782;1285;68627;-69
2022/08/22 00:55:12;;;;;;;3.50;3.20;;;;;;;16.23;100.00;98431.25;103906;1281;73373;-69
2022/08/22 00:57:44;;;;;;;3.50;3.30;;;;;;;16.23;100.00;98426.41;104280;1281;61282;-69
2022/08/22 01:00:16;;;;;;;4.00;3.70;;;;;;;16.24;100.00;98424.11;104285;1281;62003;-69
2022/08/22 01:03:07;;;;;;;4.90;4.40;;;;;;;16.26;100.00;98422.02;104296;1281;76300;-69
2022/08/22 01:05:52;;;;;;;4.80;4.30;;;;;;;16.27;100.00;98416.69;104274;1281;70386;-69
2022/08/22 01:08:47;;;;;;;5.40;4.90;;;;;;;16.28;100.00;98412.48;104291;1281;73168;-69
2022/08/22 01:11:56;;;;;;;5.40;4.90;;;;;;;16.29;100.00;98410.61;104273;1274;61375;-69
2022/08/22 01:14:26;;;;;;;5.60;5.10;;;;;;;16.29;100.00;98410.56;104902;1274;61194;-70
2022/08/22 01:17:14;;;;;;;6.70;6.10;;;;;;;16.30;100.00;98416.77;104890;1274;76856;-70
2022/08/22 01:20:27;;;;;;;5.50;5.10;;;;;;;16.32;100.00;98419.66;104851;1273;70217;-69
2022/08/22 01:23:06;;;;;;;4.90;4.50;;;;;;;16.32;100.00;98422.85;104263;1281;73455;-70
2022/08/22 01:25:54;;;;;;;5.20;4.80;;;;;;;16.33;100.00;98423.99;104217;1281;61334;-70
2022/08/22 01:28:35;;;;;;;5.80;5.30;;;;;;;16.35;100.00;98420.07;104281;1281;61369;-69
2022/08/22 01:31:20;;;;;;;5.90;5.30;;;;;;;16.36;100.00;98413.69;104238;1281;75309;-69
2022/08/22 01:34:24;;;;;;;5.80;5.30;;;;;;;16.37;100.00;98419.48;104202;1281;70562;-69
2022/08/22 01:37:25;;;;;;;5.80;5.30;;;;;;;16.38;100.00;98418.66;104371;1281;73150;-70
2022/08/22 01:40:19;;;;;;;6.60;6.10;;;;;;;16.38;100.00;98419.92;104302;1281;61593;-69
2022/08/22 01:43:26;;;;;;;6.30;5.70;;;;;;;16.39;100.00;98422.13;104275;1281;61457;-70
2022/08/22 01:46:19;;;;;;;6.60;5.80;;;;;;;16.39;100.00;98425.52;104023;1281;76196;-70
2022/08/22 01:48:54;;;;;;;6.80;6.20;;;;;;;16.40;100.00;98420.81;104282;1281;69258;-70
2022/08/22 01:51:31;;;;;;;6.20;5.70;;;;;;;16.40;100.00;98417.93;104216;1281;73539;-70
2022/08/22 01:54:32;;;;;;;7.70;6.40;;;;;;;16.40;100.00;98417.51;104248;1281;61522;-68
2022/08/22 01:57:06;;;;;;;5.90;5.50;;;;;;;16.42;100.00;98412.88;104251;1281;61210;-69
2022/08/22 01:59:40;;;;;;;5.90;5.50;;;;;;;16.44;100.00;98414.84;104546;1274;75402;-70
2022/08/22 02:02:13;;;;;;;5.20;4.80;;;;;;;16.44;100.00;98414.64;104936;1274;70609;-69
2022/08/22 02:04:54;;;;;;;4.60;4.30;;;;;;;16.44;100.00;98416.22;104882;1274;74378;-69
2022/08/22 02:07:26;;;;;;;5.20;4.80;;;;;;;16.43;100.00;98414.51;104535;1274;61288;-70
2022/08/22 02:10:19;;;;;;;5.80;5.30;;;;;;;16.45;100.00;98416.85;104872;1274;61415;-70
2022/08/22 02:13:01;;;;;;;5.20;4.80;;;;;;;16.46;100.00;98413.38;104911;1274;75102;-70
2022/08/22 02:15:39;;;;;;;5.30;4.80;;;;;;;16.48;100.00;98421.07;104907;1274;69205;-71
2022/08/22 02:18:07;;;;;;;5.00;4.60;;;;;;;16.49;100.00;98421.85;104862;1274;73196;-69
2022/08/22 02:20:46;;;;;;;5.40;5.00;;;;;;;16.50;100.00;98414.73;104887;1273;61307;-69
2022/08/22 02:23:42;;;;;;;5.10;4.70;;;;;;;16.52;100.00;98411.35;104898;1274;61388;-70
2022/08/22 02:26:16;;;;;;;6.00;5.50;;;;;;;16.53;100.00;98406.50;104848;1273;75435;-69
2022/08/22 02:28:56;;;;;;;6.90;6.30;;;;;;;16.56;100.00;98405.41;104911;1274;70182;-70
2022/08/22 02:31:45;;;;;;;7.70;7.00;;;;;;;16.57;100.00;98408.54;104833;1274;73158;-71
2022/08/22 02:34:35;;;;;;;8.40;7.60;;;;;;;16.59;100.00;98408.31;104858;1274;61336;-70
2022/08/22 02:37:34;;;;;;;;;;;;;;;16.61;100.00;98403.98;104981;1274;61265;-71
2022/08/22 02:40:33;;;;;;;12.50;11.30;;;;;;;16.62;100.00;98401.17;104373;1280;75484;-72
2022/08/22 02:43:18;;;;;;;13.30;12.10;;;;;;;16.63;100.00;98400.48;103762;1285;69462;-68
2022/08/22 02:45:45;;;;;;;13.20;11.70;;;;;;;16.65;100.00;98401.98;103751;1285;74229;-70
2022/08/22 02:48:42;;;;;;;17.60;14.40;;;;;;;16.66;100.00;98402.05;103783;1285;61439;-69
2022/08/22 02:51:45;;;;;;;21.10;16.00;;;;;;;16.66;100.00;98405.52;103804;1285;61856;-70
2022/08/22 02:54:16;;;;;;;17.60;14.30;;;;;;;16.69;100.00;98406.58;103830;1285;75161;-70
2022/08/22 02:56:56;;;;;;;17.70;14.90;;;;;;;16.69;100.00;98407.46;103816;1285;68779;-67
2022/08/22 02:59:25;;;;;;;18.30;14.90;;;;;;;16.70;100.00;98408.23;103774;1285;73175;-69
2022/08/22 03:01:55;;;;;;;20.80;15.90;;;;;;;16.71;100.00;98409.75;103788;1285;61333;-67
2022/08/22 03:04:30;;;;;;;19.20;14.50;;;;;;;16.72;100.00;98410.55;103833;1285;61892;-70
2022/08/22 03:07:21;;;;;;;16.90;14.90;;;;;;;16.73;100.00;98411.23;103781;1285;76523;-69
2022/08/22 03:09:58;;;;;;;22.00;15.00;;;;;;;16.74;100.00;98411.23;103831;1285;70489;-68
2022/08/22 03:12:40;;;;;;;23.10;16.00;;;;;;;16.75;100.00;98409.66;103790;1285;72286;-70
2022/08/22 03:15:34;;;;;;;24.10;16.20;;;;;;;16.77;100.00;98406.71;103791;1285;61626;-71
2022/08/22 03:18:16;;;;;;;25.10;17.80;;;;;;;16.78;100.00;98405.17;104243;1282;61323;-69
2022/08/22 03:20:57;;;;;;;26.80;18.20;;;;;;;16.78;100.00;98406.17;104622;1274;75239;-69
2022/08/22 03:23:52;;;;;;;25.10;18.30;;;;;;;16.79;100.00;98402.70;104945;1274;69307;-70
2022/08/22 03:26:40;;;;;;;26.40;18.00;;;;;;;16.80;100.00;98406.58;104855;1274;74322;-71
2022/08/22 03:29:17;;;;;;;35.10;21.30;;;;;;;16.80;100.00;98403.65;104876;1274;61296;-69
2022/08/22 03:32:11;;;;;;;33.70;22.00;;;;;;;16.81;100.00;98406.98;104900;1274;61293;-71
2022/08/22 03:35:01;;;;;;;34.90;22.70;;;;;;;16.81;100.00;98408.80;104951;1274;75225;-70
2022/08/22 03:37:34;;;;;;;;;;;;;;;16.81;100.00;98404.58;105029;1274;70504;-70
2022/08/22 03:40:03;;;;;;;38.80;24.30;;;;;;;16.81;100.00;98404.80;104828;1274;74370;-69
2022/08/22 03:42:41;;;;;;;43.30;25.50;;;;;;;16.81;100.00;98405.70;104854;1274;61347;-70
2022/08/22 03:45:24;;;;;;;39.70;25.90;;;;;;;16.81;100.00;98408.25;104983;1274;61795;-69
2022/08/22 03:47:52;;;;;;;41.50;25.00;;;;;;;16.82;100.00;98410.52;105115;1274;76303;-70
2022/08/22 03:50:44;;;;;;;42.90;24.80;;;;;;;16.81;100.00;98412.15;105088;1274;69203;-71
2022/08/22 03:53:26;;;;;;;38.30;23.60;;;;;;;16.82;100.00;98416.55;104715;1274;71674;-69
2022/08/22 03:56:30;;;;;;;42.70;24.20;;;;;;;16.82;100.00;98416.43;105120;1274;61345;-70
2022/08/22 03:59:03;;;;;;;34.70;21.30;;;;;;;16.81;100.00;98415.21;105125;1274;61281;-69
2022/08/22 04:01:55;;;;;;;36.20;22.70;;;;;;;16.81;100.00;98417.91;105115;1274;75257;-69
2022/08/22 04:04:43;;;;;;;37.10;21.60;;;;;;;16.81;100.00;98418.62;105038;1274;69103;-69
2022/08/22 04:07:53;;;;;;;18.30;14.00;;;;;;;16.81;100.00;98419.59;105078;1274;73334;-70
2022/08/22 04:10:53;;;;;;;12.30;11.00;;;;;;;16.76;100.00;98423.61;104398;1281;61330;-69
2022/08/22 04:13:47;;;;;;;14.30;9.80;;;;;;;16.71;100.00;98425.80;104296;1281;61352;-70
2022/08/22 04:16:45;;;;;;;15.40;10.20;;;;;;;16.66;100.00;98431.45;104308;1281;75104;-69
2022/08/22 04:19:11;;;;;;;14.70;10.90;;;;;;;16.65;100.00;98430.85;103978;1282;69378;-69
2022/08/22 04:22:19;;;;;;;10.90;9.70;;;;;;;16.63;100.00;98428.79;104294;1281;61442;-69
2022/08/22 04:25:06;;;;;;;13.90;10.50;;;;;;;16.63;100.00;98431.85;103902;1286;61339;-68
2022/08/22 04:27:51;;;;;;;13.90;10.20;;;;;;;16.63;100.00;98434.58;103901;1286;61604;-70
2022/08/22 04:30:30;;;;;;;14.30;10.50;;;;;;;16.64;100.00;98439.53;103869;1286;76644;-69
2022/08/22 04:33:10;;;;;;;12.70;10.50;;;;;;;16.64;100.00;98441.71;103934;1286;69601;-69
2022/08/22 04:36:09;;;;;;;12.70;10.20;;;;;;;16.63;100.00;98450.75;103881;1286;73468;-70
2022/08/22 04:39:00;;;;;;;13.10;10.60;;;;;;;16.59;100.00;98452.54;102807;1286;1622384;-71
2022/08/22 04:42:02;;;;;;;15.00;11.60;;;;;;;16.58;100.00;98452.73;103942;1286;61466;-69
2022/08/22 04:44:56;;;;;;;12.90;11.00;;;;;;;16.57;100.00;98453.52;103931;1286;75235;-69
2022/08/22 04:47:28;;;;;;;14.50;11.90;;;;;;;16.56;100.00;98455.20;104128;1280;69193;-70
2022/08/22 04:50:09;;;;;;;14.60;13.00;;;;;;;16.56;100.00;98460.92;104117;1280;73205;-71
2022/08/22 04:52:48;;;;;;;19.30;13.60;;;;;;;16.57;100.00;98460.63;104413;1280;61388;-69
2022/08/22 04:55:30;;;;;;;18.80;13.60;;;;;;;16.60;100.00;98463.02;104399;1280;61466;-71
2022/08/22 04:58:05;;;;;;;19.10;13.70;;;;;;;16.60;100.00;98471.11;104403;1280;76201;-71
2022/08/22 05:00:53;;;;;;;19.00;14.30;;;;;;;16.60;100.00;98472.55;104826;1274;69668;-69
2022/08/22 05:03:24;;;;;;;21.10;14.60;;;;;;;16.60;100.00;98476.89;104882;1274;73322;-70
2022/08/22 05:05:52;;;;;;;18.90;14.00;;;;;;;16.62;100.00;98477.55;104869;1274;61308;-70
2022/08/22 05:08:26;;;;;;;17.30;14.80;;;;;;;16.66;100.00;98474.68;104897;1274;61246;-71
2022/08/22 05:10:53;;;;;;;18.70;13.80;;;;;;;16.69;100.00;98473.61;104916;1274;75161;-70
2022/08/22 05:13:26;;;;;;;15.50;13.80;;;;;;;16.71;100.00;98473.96;104907;1274;69356;-70
2022/08/22 05:16:02;;;;;;;18.90;14.10;;;;;;;16.72;100.00;98477.11;104916;1274;73548;-70
2022/08/22 05:18:35;;;;;;;18.90;14.70;;;;;;;16.72;100.00;98476.98;104599;1274;61424;-71
2022/08/22 05:21:07;;;;;;;17.10;14.90;;;;;;;16.73;100.00;98478.48;104908;1274;61285;-70
2022/08/22 05:23:43;;;;;;;15.80;14.10;;;;;;;16.74;100.00;98480.18;104906;1274;73638;-70
2022/08/22 05:26:12;;;;;;;18.40;14.90;;;;;;;16.75;100.00;98481.31;104772;1274;70244;-70
2022/08/22 05:29:12;;;;;;;18.60;14.90;;;;;;;16.76;100.00;98482.48;104905;1274;73332;-71
2022/08/22 05:31:50;;;;;;;21.30;16.10;;;;;;;16.77;100.00;98482.76;104331;1281;61693;-71
2022/08/22 05:34:25;;;;;;;21.30;16.10;;;;;;;16.79;100.00;98487.42;104357;1281;61387;-71
2022/08/22 05:37:01;;;;;;;20.70;15.60;;;;;;;16.81;100.00;98487.88;104363;1281;74425;-70
2022/08/22 05:39:28;;;;;;;19.90;15.70;;;;;;;16.81;100.00;98489.80;104301;1281;70622;-69
2022/08/22 05:41:58;;;;;;;18.40;15.80;;;;;;;16.85;100.00;98491.61;104322;1281;73336;-71
2022/08/22 05:44:30;;;;;;;22.00;17.00;;;;;;;16.88;100.00;98490.11;104350;1281;61384;-69
2022/08/22 05:47:18;;;;;;;21.60;16.40;;;;;;;16.93;100.00;98489.80;104004;1282;61450;-69
2022/08/22 05:50:04;;;;;;;23.10;17.90;;;;;;;16.96;100.00;98491.95;104326;1281;76314;-70
2022/08/22 05:52:54;;;;;;;20.90;16.40;;;;;;;16.99;100.00;98492.37;104354;1281;69195;-71
2022/08/22 05:55:30;;;;;;;20.60;17.10;;;;;;;17.02;100.00;98489.34;104338;1281;73208;-69
2022/08/22 05:58:02;;;;;;;22.70;16.50;;;;;;;17.06;100.00;98490.52;104309;1281;61268;-71
2022/08/22 06:00:36;;;;;;;19.60;15.90;;;;;;;17.10;100.00;98490.52;104340;1281;61759;-70
2022/08/22 06:03:14;;;;;;;24.20;18.40;;;;;;;17.16;100.00;98491.39;104350;1281;76361;-70
2022/08/22 06:05:46;;;;;;;23.50;17.30;;;;;;;17.20;100.00;98493.34;104332;1281;70181;-71
2022/08/22 06:08:33;;;;;;;24.10;18.00;;;;;;;17.22;100.00;98499.24;104475;1277;73259;-67
2022/08/22 06:11:10;;;;;;;26.70;18.80;;;;;;;17.26;100.00;98502.14;104797;1274;61396;-69
2022/08/22 06:13:44;;;;;;;23.30;18.60;;;;;;;17.27;100.00;98505.62;104613;1274;61259;-70
2022/08/22 06:16:23;;;;;;;24.80;19.20;;;;;;;17.27;100.00;98501.34;104908;1274;76380;-70
2022/08/22 06:18:51;;;;;;;22.60;18.10;;;;;;;17.29;100.00;98503.70;104892;1274;67326;-70
2022/08/22 06:21:25;;;;;;;22.40;18.70;;;;;;;17.30;100.00;98505.48;104871;1274;74328;-71
2022/08/22 06:23:56;;;;;;;24.30;19.00;;;;;;;17.32;100.00;98505.63;104799;1274;61355;-70
2022/08/22 06:26:27;;;;;;;23.30;19.60;;;;;;;17.36;100.00;98507.63;104996;1274;61314;-70
2022/08/22 06:28:58;;;;;;;24.60;18.90;;;;;;;17.40;100.00;98508.87;104372;1274;75283;-71
2022/08/22 06:31:48;;;;;;;23.20;18.30;;;;;;;17.41;100.00;98509.23;104897;1274;69061;-70
2022/08/22 06:34:19;;;;;;;;;;;;;;;17.42;100.00;98509.48;104245;1281;74231;-70
2022/08/22 06:36:49;;;;;;;25.70;19.20;;;;;;;17.46;100.00;98514.84;104260;1281;61451;-69
2022/08/22 06:39:32;;;;;;;26.60;21.20;;;;;;;17.50;100.00;98514.25;104291;1281;61300;-70
2022/08/22 06:42:05;;;;;;;24.60;18.90;;;;;;;17.55;100.00;98507.09;104242;1281;76438;-69
2022/08/22 06:44:55;;;;;;;24.60;19.20;;;;;;;17.62;100.00;98509.84;104256;1281;68256;-72
2022/08/22 06:47:32;;;;;;;24.80;19.70;;;;;;;17.68;100.00;98507.59;104320;1281;73593;-71
2022/08/22 06:50:06;;;;;;;26.30;21.30;;;;;;;17.72;100.00;98506.20;104267;1281;61389;-69
2022/08/22 06:52:47;;;;;;;30.80;23.00;;;;;;;17.78;100.00;98511.36;104282;1281;62021;-70
2022/08/22 06:55:15;;;;;;;33.50;20.90;;;;;;;17.81;100.00;98513.80;104255;1281;75303;-68
2022/08/22 06:57:49;;;;;;;28.80;19.50;;;;;;;17.84;100.00;98507.36;104161;1285;69369;-69
2022/08/22 07:00:17;;;;;;;23.50;19.50;;;;;;;17.87;100.00;98511.70;104263;1281;72230;-70
2022/08/22 07:03:12;;;;;;;21.20;18.30;;;;;;;17.90;100.00;98513.88;104335;1281;61383;-71
2022/08/22 07:05:41;;;;;;;23.40;19.50;;;;;;;17.93;100.00;98514.46;103342;1290;62598;-70
2022/08/22 07:08:13;;;;;;;24.00;18.70;;;;;;;17.96;100.00;98511.41;103427;1290;76461;-70
2022/08/22 07:10:44;;;;;;;23.80;19.10;;;;;;;17.99;100.00;98509.17;103354;1291;70502;-69
2022/08/22 07:13:18;;;;;;;25.60;18.80;;;;;;;18.01;100.00;98513.63;104117;1282;73346;-71
2022/08/22 07:15:53;;;;;;;25.70;20.00;;;;;;;18.06;100.00;98513.85;104119;1282;61347;-71
2022/08/22 07:18:23;;;;;;;23.40;19.80;;;;;;;18.09;100.00;98517.27;104104;1282;61874;-71
2022/08/22 07:20:55;;;;;;;24.20;18.90;;;;;;;18.11;100.00;98518.58;104096;1282;75119;-69
2022/08/22 07:23:39;;;;;;;23.90;20.60;;;;;;;18.13;100.00;98512.34;104106;1282;69416;-69
2022/08/22 07:26:08;;;;;;;27.30;19.70;;;;;;;18.16;100.00;98513.07;104166;1282;73145;-69
2022/08/22 07:28:41;;;;;;;29.40;21.70;;;;;;;18.25;100.00;98515.23;104095;1282;61336;-70
2022/08/22 07:31:11;;;;;;;22.30;18.50;;;;;;;18.28;100.00;98514.44;104128;1282;61300;-69
2022/08/22 07:33:51;;;;;;;26.70;20.40;;;;;;;18.28;100.00;98518.02;104096;1282;76105;-69
2022/08/22 07:36:28;;;;;;;23.50;18.70;;;;;;;18.28;100.00;98519.93;104161;1282;69173;-69
2022/08/22 07:39:19;;;;;;;24.40;19.20;;;;;;;18.27;100.00;98519.48;104112;1282;73388;-69
2022/08/22 07:42:05;;;;;;;24.30;19.00;;;;;;;18.27;100.00;98525.05;104100;1282;61325;-69
2022/08/22 07:45:00;;;;;;;24.00;18.30;;;;;;;18.23;100.00;98524.47;104868;1274;61157;-70
2022/08/22 07:47:42;;;;;;;24.50;20.50;;;;;;;18.21;100.00;98524.09;104350;1281;76429;-70
2022/08/22 07:50:14;;;;;;;24.80;20.40;;;;;;;18.21;100.00;98523.88;104348;1279;70499;-69
2022/08/22 07:52:43;;;;;;;25.80;19.90;;;;;;;18.25;100.00;98525.90;104331;1279;73228;-71
2022/08/22 07:55:22;;;;;;;26.50;20.60;;;;;;;18.30;100.00;98524.63;104159;1279;61413;-70
2022/08/22 07:57:54;;;;;;;;;;;;;;;18.28;100.00;98526.77;104424;1279;61325;-69
2022/08/22 08:00:23;;;;;;;24.30;20.60;;;;;;;18.29;100.00;98524.20;104366;1279;75827;-70
2022/08/22 08:02:57;;;;;;;29.60;21.40;;;;;;;18.31;100.00;98521.25;104393;1279;69492;-69
2022/08/22 08:05:29;;;;;;;26.50;21.20;;;;;;;18.29;100.00;98515.84;104432;1280;73581;-71
2022/08/22 08:07:56;;;;;;;27.60;21.10;;;;;;;18.31;100.00;98515.09;104377;1280;61398;-69
2022/08/22 08:10:31;;;;;;;28.00;21.90;;;;;;;18.37;100.00;98516.11;104460;1280;61420;-71
2022/08/22 08:13:21;;;;;;;28.30;22.80;;;;;;;18.44;100.00;98508.55;104384;1279;75229;-71
2022/08/22 08:15:49;;;;;;;27.20;22.60;;;;;;;18.54;100.00;98502.80;104449;1279;69255;-67
2022/08/22 08:18:22;;;;;;;28.50;21.10;;;;;;;18.63;100.00;98486.30;104028;1280;74379;-71
2022/08/22 08:20:53;;;;;;;26.20;21.70;;;;;;;18.79;100.00;98483.13;104452;1279;61337;-70
2022/08/22 08:23:21;;;;;;;27.80;21.30;;;;;;;18.95;100.00;98485.54;104403;1280;61811;-70
2022/08/22 08:25:57;;;;;;;24.70;20.50;;;;;;;19.05;100.00;98492.35;104790;1274;76477;-70
2022/08/22 08:28:33;;;;;;;27.50;22.50;;;;;;;19.13;100.00;98496.52;104551;1274;70547;-70
2022/08/22 08:31:25;;;;;;;31.50;23.90;;;;;;;19.17;100.00;98505.15;104801;1274;73381;-71
2022/08/22 08:34:02;;;;;;;26.70;22.40;;;;;;;19.18;100.00;98509.46;104891;1274;61400;-71
2022/08/22 08:36:35;;;;;;;33.10;23.50;;;;;;;19.18;100.00;98507.85;104975;1274;61383;-71
2022/08/22 08:39:44;;;;;;;29.70;24.20;;;;;;;19.19;100.00;98509.64;104909;1274;74992;-70
2022/08/22 08:45:50;;;;;;;29.30;23.80;;;;;;;19.23;100.00;98512.73;104938;1274;74323;-71
2022/08/22 08:48:38;;;;;;;31.00;23.50;;;;;;;19.25;100.00;98512.21;104927;1274;61390;-70
2022/08/22 08:51:15;;;;;;;35.40;27.10;;;;;;;19.19;100.00;98512.60;104904;1274;61187;-70
2022/08/22 08:53:55;;;;;;;33.80;25.80;;;;;;;19.14;100.00;98513.20;104913;1274;76412;-71
2022/08/22 08:56:48;;;;;;;34.60;25.70;;;;;;;19.13;100.00;98513.36;104899;1274;70511;-69
2022/08/22 08:59:28;;;;;;;33.50;27.30;;;;;;;19.14;100.00;98515.19;104915;1274;72497;-70
2022/08/22 09:02:03;;;;;;;36.60;27.40;;;;;;;19.18;100.00;98517.20;104919;1273;61425;-70
2022/08/22 09:05:01;;;;;;;31.90;28.10;;;;;;;19.21;100.00;98512.64;104863;1274;61447;-70
2022/08/22 09:07:37;;;;;;;34.00;26.40;;;;;;;19.25;100.00;98514.30;104937;1274;76537;-69
2022/08/22 09:10:28;;;;;;;34.00;26.70;;;;;;;19.30;100.00;98517.73;104923;1274;70556;-70
2022/08/22 09:13:16;;;;;;;38.20;28.80;;;;;;;19.40;100.00;98519.19;104877;1274;73434;-70
2022/08/22 09:15:51;;;;;;;36.30;28.10;;;;;;;19.45;100.00;98522.92;104931;1274;61328;-69
2022/08/22 09:18:48;;;;;;;36.40;28.20;;;;;;;19.44;100.00;98522.59;104927;1274;61180;-69
2022/08/22 09:21:43;;;;;;;38.00;27.00;;;;;;;19.44;100.00;98525.20;104907;1274;76391;-69
2022/08/22 09:25:00;;;;;;;35.20;27.80;;;;;;;19.42;100.00;98526.27;104848;1273;70475;-69
2022/08/22 09:27:49;;;;;;;31.90;26.20;;;;;;;19.38;100.00;98532.83;104119;1281;71408;-71
2022/08/22 09:30:21;;;;;;;34.90;25.90;;;;;;;19.31;100.00;98534.33;104341;1281;61218;-71
2022/08/22 09:33:04;;;;;;;34.50;27.60;;;;;;;19.21;100.00;98538.55;104352;1281;61429;-71
2022/08/22 09:35:59;;;;;;;34.50;26.90;;;;;;;19.12;100.00;98538.11;104362;1281;75730;-71
2022/08/22 09:39:10;;;;;;;33.00;26.80;;;;;;;19.03;100.00;98541.24;104363;1281;69214;-70
2022/08/22 09:42:01;;;;;;;34.90;27.10;;;;;;;18.97;100.00;98541.36;103643;1287;74103;-70
2022/08/22 09:44:54;;;;;;;33.80;27.60;;;;;;;18.91;100.00;98542.95;103633;1287;61353;-70
2022/08/22 09:47:32;;;;;;;32.50;25.80;;;;;;;18.84;100.00;98547.80;103600;1287;61449;-70
2022/08/22 09:50:02;;;;;;;35.20;27.70;;;;;;;18.80;100.00;98550.19;103711;1287;75238;-71
2022/08/22 09:52:45;;;;;;;29.90;25.00;;;;;;;18.78;100.00;98549.14;103656;1287;69316;-70
2022/08/22 09:55:38;;;;;;;29.40;23.50;;;;;;;18.74;100.00;98548.36;103691;1287;73579;-70
2022/08/22 09:58:22;;;;;;;29.10;22.90;;;;;;;18.69;100.00;98553.14;103830;1281;61449;-70
2022/08/22 10:00:53;;;;;;;25.50;21.00;;;;;;;18.63;100.00;98552.91;104364;1281;61401;-70
2022/08/22 10:03:44;;;;;;;21.30;18.90;;;;;;;18.59;100.00;98552.95;104348;1281;75812;-70
2022/08/22 10:06:23;;;;;;;21.50;17.30;;;;;;;18.56;100.00;98556.22;104307;1281;69255;-71
2022/08/22 10:09:02;;;;;;;18.40;16.40;;;;;;;18.51;100.00;98553.49;104125;1281;73309;-70
2022/08/22 10:11:38;;;;;;;18.20;16.30;;;;;;;18.52;100.00;98554.31;104421;1281;61542;-70
2022/08/22 10:14:21;;;;;;;17.70;15.80;;;;;;;18.55;100.00;98557.35;104352;1281;61992;-70
2022/08/22 10:16:51;;;;;;;15.40;13.90;;;;;;;18.59;100.00;98556.96;104368;1281;76009;-69
2022/08/22 10:19:34;;;;;;;14.50;13.00;;;;;;;18.65;100.00;98556.33;104756;1274;70431;-70
2022/08/22 10:22:03;;;;;;;14.60;13.30;;;;;;;18.75;100.00;98559.40;104787;1274;72970;-70
2022/08/22 10:25:02;;;;;;;14.40;13.10;;;;;;;18.90;100.00;98557.05;104900;1274;61189;-70
2022/08/22 10:27:56;;;;;;;14.10;12.70;;;;;;;19.11;100.00;98555.66;104929;1274;61886;-71
2022/08/22 10:30:29;;;;;;;12.80;11.60;;;;;;;19.32;100.00;98553.92;104941;1274;76479;-70
2022/08/22 10:33:19;;;;;;;12.00;10.90;;;;;;;19.47;100.00;98554.58;104896;1275;69451;-69
2022/08/22 10:35:49;;;;;;;12.40;11.30;;;;;;;19.58;100.00;98554.30;104937;1274;73461;-71
2022/08/22 10:38:34;;;;;;;12.20;11.10;;;;;;;19.64;100.00;98549.94;104889;1274;61275;-71
2022/08/22 10:41:07;;;;;;;11.20;10.10;;;;;;;19.76;100.00;98550.68;104924;1274;61301;-70
2022/08/22 10:43:59;;;;;;;11.80;10.80;;;;;;;19.81;100.00;98550.40;104926;1274;76432;-70
2022/08/22 10:47:07;;;;;;;12.10;11.00;;;;;;;19.87;100.00;98551.27;104922;1274;69380;-71
2022/08/22 10:49:44;;;;;;;11.50;10.40;;;;;;;19.91;100.00;98547.00;104462;1278;72190;-71
2022/08/22 10:52:22;;;;;;;11.40;10.40;;;;;;;19.91;100.00;98548.41;104677;1278;61341;-70
2022/08/22 10:55:00;;;;;;;13.00;11.70;;;;;;;19.91;100.00;98545.85;104708;1278;61336;-71
2022/08/22 10:57:31;;;;;;;13.00;11.80;;;;;;;19.95;100.00;98548.92;104666;1278;75372;-70
2022/08/22 11:00:12;;;;;;;14.70;13.10;;;;;;;20.01;100.00;98550.52;104669;1278;69476;-71
2022/08/22 11:03:05;;;;;;;16.00;14.40;;;;;;;20.12;100.00;98549.71;104640;1278;73122;-69
2022/08/22 11:05:38;;;;;;;17.30;15.40;;;;;;;20.23;100.00;98548.36;104664;1277;61243;-70
2022/08/22 11:08:28;;;;;;;18.40;15.60;;;;;;;20.38;100.00;98547.77;104679;1277;61352;-70
2022/08/22 11:11:24;;;;;;;16.90;15.00;;;;;;;20.66;100.00;98547.25;104668;1277;75243;-70
2022/08/22 11:14:18;;;;;;;16.70;14.90;;;;;;;20.85;100.00;98546.49;104645;1277;69425;-70
2022/08/22 11:17:08;;;;;;;17.30;15.50;;;;;;;20.98;100.00;98543.93;104667;1277;74311;-70
2022/08/22 11:19:53;;;;;;;17.70;15.80;;;;;;;21.07;100.00;98548.07;104616;1277;61370;-71
2022/08/22 11:22:30;;;;;;;20.60;16.80;;;;;;;21.13;100.00;98548.70;104376;1277;62141;-69
2022/08/22 11:25:25;;;;;;;19.90;16.10;;;;;;;21.17;100.00;98549.08;104671;1274;75291;-72
2022/08/22 11:28:04;;;;;;;17.40;15.50;;;;;;;21.15;100.00;98548.27;104802;1274;69281;-71
2022/08/22 11:30:43;;;;;;;17.60;15.30;;;;;;;21.27;100.00;98546.29;104915;1273;72978;-70
2022/08/22 11:33:23;;;;;;;17.30;15.50;;;;;;;21.29;100.00;98544.20;104921;1273;61310;-70
2022/08/22 11:35:59;;;;;;;17.50;14.90;;;;;;;21.28;100.00;98551.63;104893;1274;61407;-69
2022/08/22 11:39:01;;;;;;;17.80;14.60;;;;;;;21.22;100.00;98553.75;104933;1274;75243;-69
2022/08/22 11:42:02;;;;;;;19.60;14.40;;;;;;;21.07;100.00;98551.70;104299;1281;69379;-71
2022/08/22 11:44:45;;;;;;;18.80;15.40;;;;;;;20.98;100.00;98552.06;104311;1281;74413;-71
2022/08/22 11:47:17;;;;;;;18.70;15.30;;;;;;;21.05;100.00;98550.87;104260;1281;61383;-72
2022/08/22 11:49:53;;;;;;;17.80;14.50;;;;;;;21.09;100.00;98549.34;104212;1283;61466;-71
2022/08/22 11:52:45;;;;;;;22.00;16.50;;;;;;;21.11;100.00;98549.59;104191;1282;74884;-72
2022/08/22 11:55:33;;;;;;;20.00;16.50;;;;;;;21.09;100.00;98549.31;104177;1282;70176;-71
2022/08/22 11:58:20;;;;;;;24.70;17.10;;;;;;;21.12;100.00;98545.93;104187;1284;74347;-71
2022/08/22 12:00:58;;;;;;;21.50;17.80;;;;;;;21.33;100.00;98537.48;104183;1282;61378;-72
2022/08/22 12:03:43;;;;;;;26.20;20.50;;;;;;;21.62;100.00;98536.14;104183;1283;62145;-69
2022/08/22 12:06:47;;;;;;;20.50;18.40;;;;;;;21.83;100.00;98538.16;104286;1283;75262;-69
2022/08/22 12:09:31;;;;;;;20.90;17.60;;;;;;;21.91;100.00;98531.86;104198;1283;69465;-71
2022/08/22 12:12:16;;;;;;;26.50;21.10;;;;;;;21.95;100.00;98530.98;104159;1283;73443;-71
2022/08/22 12:15:07;;;;;;;26.20;20.90;;;;;;;22.04;100.00;98528.70;104217;1282;61310;-71
2022/08/22 12:17:34;;;;;;;27.60;21.00;;;;;;;22.13;100.00;98531.77;104194;1284;61394;-71
2022/08/22 12:20:24;;;;;;;29.10;22.10;;;;;;;22.02;100.00;98532.80;104805;1274;61420;-70